sensor_id;sensor_type;location;lat;lon;timestamp;P1;durP1;ratioP1;P2;durP2;ratioP2
69565;SDS011;56777;55.930;37.524;2024-03-08T00:01:09;16.48;;;6.70;;
69565;SDS011;56777;55.930;37.524;2024-03-08T00:03:35;14.77;;;7.45;;
69565;SDS011;56777;55.930;37.524;2024-03-08T00:06:00;16.48;;;7.30;;
69565;SDS011;56777;55.930;37.524;2024-03-08T00:08:26;17.17;;;8.35;;
69565;SDS011;56777;55.930;37.524;2024-03-08T00:10:52;22.48;;;8.52;;
69565;SDS011;56777;55.930;37.524;2024-03-08T00:13:17;18.00;;;8.05;;
69565;SDS011;56777;55.930;37.524;2024-03-08T00:15:43;19.77;;;8.48;;
69565;SDS011;56777;55.930;37.524;2024-03-08T00:18:08;17.27;;;7.93;;
69565;SDS011;56777;55.930;37.524;2024-03-08T00:20:35;18.30;;;7.97;;
69565;SDS011;56777;55.930;37.524;2024-03-08T00:23:01;17.65;;;7.72;;
69565;SDS011;56777;55.930;37.524;2024-03-08T00:25:26;17.88;;;7.63;;
69565;SDS011;56777;55.930;37.524;2024-03-08T00:27:52;17.17;;;8.02;;
69565;SDS011;56777;55.930;37.524;2024-03-08T00:30:21;15.10;;;7.65;;
69565;SDS011;56777;55.930;37.524;2024-03-08T00:32:50;17.27;;;8.50;;
69565;SDS011;56777;55.930;37.524;2024-03-08T00:35:15;18.60;;;9.38;;
69565;SDS011;56777;55.930;37.524;2024-03-08T00:37:41;18.20;;;8.55;;
69565;SDS011;56777;55.930;37.524;2024-03-08T00:40:07;19.77;;;8.27;;
69565;SDS011;56777;55.930;37.524;2024-03-08T00:42:34;21.77;;;9.63;;
69565;SDS011;56777;55.930;37.524;2024-03-08T00:45:00;21.88;;;8.98;;
69565;SDS011;56777;55.930;37.524;2024-03-08T00:47:26;24.30;;;10.18;;
69565;SDS011;56777;55.930;37.524;2024-03-08T00:49:52;21.42;;;9.93;;
69565;SDS011;56777;55.930;37.524;2024-03-08T00:52:18;24.63;;;9.77;;
69565;SDS011;56777;55.930;37.524;2024-03-08T00:54:44;28.23;;;9.52;;
69565;SDS011;56777;55.930;37.524;2024-03-08T00:57:10;23.90;;;10.43;;
69565;SDS011;56777;55.930;37.524;2024-03-08T00:59:37;23.08;;;10.85;;
69565;SDS011;56777;55.930;37.524;2024-03-08T01:02:03;26.38;;;10.95;;
69565;SDS011;56777;55.930;37.524;2024-03-08T01:04:29;30.33;;;10.90;;
69565;SDS011;56777;55.930;37.524;2024-03-08T01:06:56;26.95;;;10.85;;
69565;SDS011;56777;55.930;37.524;2024-03-08T01:09:25;28.23;;;10.90;;
69565;SDS011;56777;55.930;37.524;2024-03-08T01:11:52;29.83;;;12.32;;
69565;SDS011;56777;55.930;37.524;2024-03-08T01:14:19;30.50;;;12.38;;
69565;SDS011;56777;55.930;37.524;2024-03-08T01:16:47;30.60;;;12.38;;
69565;SDS011;56777;55.930;37.524;2024-03-08T01:19:13;30.77;;;12.02;;
69565;SDS011;56777;55.930;37.524;2024-03-08T01:21:39;27.27;;;12.20;;
69565;SDS011;56777;55.930;37.524;2024-03-08T01:24:04;26.58;;;11.90;;
69565;SDS011;56777;55.930;37.524;2024-03-08T01:26:30;26.65;;;11.43;;
69565;SDS011;56777;55.930;37.524;2024-03-08T01:28:56;26.58;;;11.98;;
69565;SDS011;56777;55.930;37.524;2024-03-08T01:31:21;30.77;;;12.80;;
69565;SDS011;56777;55.930;37.524;2024-03-08T01:33:47;30.55;;;12.98;;
69565;SDS011;56777;55.930;37.524;2024-03-08T01:36:13;33.15;;;12.57;;
69565;SDS011;56777;55.930;37.524;2024-03-08T01:38:40;30.60;;;12.27;;
69565;SDS011;56777;55.930;37.524;2024-03-08T01:41:07;27.15;;;10.68;;
69565;SDS011;56777;55.930;37.524;2024-03-08T01:43:34;29.30;;;12.25;;
69565;SDS011;56777;55.930;37.524;2024-03-08T01:46:00;30.27;;;11.25;;
69565;SDS011;56777;55.930;37.524;2024-03-08T01:48:27;29.02;;;11.75;;
69565;SDS011;56777;55.930;37.524;2024-03-08T01:50:54;35.50;;;13.38;;
69565;SDS011;56777;55.930;37.524;2024-03-08T01:53:21;32.33;;;12.48;;
69565;SDS011;56777;55.930;37.524;2024-03-08T01:55:48;31.58;;;12.75;;
69565;SDS011;56777;55.930;37.524;2024-03-08T01:58:15;28.42;;;12.73;;
69565;SDS011;56777;55.930;37.524;2024-03-08T02:00:44;31.23;;;12.05;;
69565;SDS011;56777;55.930;37.524;2024-03-08T02:03:11;27.17;;;11.18;;
69565;SDS011;56777;55.930;37.524;2024-03-08T02:05:38;26.65;;;11.00;;
69565;SDS011;56777;55.930;37.524;2024-03-08T02:08:06;28.55;;;11.65;;
69565;SDS011;56777;55.930;37.524;2024-03-08T02:10:43;30.73;;;12.32;;
69565;SDS011;56777;55.930;37.524;2024-03-08T02:13:10;23.13;;;10.45;;
69565;SDS011;56777;55.930;37.524;2024-03-08T02:18:22;32.35;;;12.95;;
69565;SDS011;56777;55.930;37.524;2024-03-08T02:20:58;29.27;;;11.82;;
69565;SDS011;56777;55.930;37.524;2024-03-08T02:23:24;29.35;;;11.20;;
69565;SDS011;56777;55.930;37.524;2024-03-08T02:25:51;28.27;;;12.13;;
69565;SDS011;56777;55.930;37.524;2024-03-08T02:28:17;30.83;;;11.68;;
69565;SDS011;56777;55.930;37.524;2024-03-08T02:30:46;30.75;;;11.57;;
69565;SDS011;56777;55.930;37.524;2024-03-08T02:33:13;27.27;;;12.38;;
69565;SDS011;56777;55.930;37.524;2024-03-08T02:35:43;30.67;;;13.27;;
69565;SDS011;56777;55.930;37.524;2024-03-08T02:38:13;28.33;;;11.75;;
69565;SDS011;56777;55.930;37.524;2024-03-08T02:40:42;29.48;;;12.23;;
69565;SDS011;56777;55.930;37.524;2024-03-08T02:43:08;30.42;;;12.43;;
69565;SDS011;56777;55.930;37.524;2024-03-08T02:45:35;31.10;;;12.43;;
69565;SDS011;56777;55.930;37.524;2024-03-08T02:48:01;27.85;;;11.48;;
69565;SDS011;56777;55.930;37.524;2024-03-08T02:50:26;25.73;;;12.13;;
69565;SDS011;56777;55.930;37.524;2024-03-08T02:52:52;28.42;;;12.55;;
69565;SDS011;56777;55.930;37.524;2024-03-08T02:55:17;21.17;;;10.85;;
69565;SDS011;56777;55.930;37.524;2024-03-08T02:57:43;23.20;;;10.77;;
69565;SDS011;56777;55.930;37.524;2024-03-08T03:00:09;26.00;;;11.27;;
69565;SDS011;56777;55.930;37.524;2024-03-08T03:02:35;28.02;;;12.07;;
69565;SDS011;56777;55.930;37.524;2024-03-08T03:05:02;27.83;;;12.85;;
69565;SDS011;56777;55.930;37.524;2024-03-08T03:07:31;24.92;;;10.82;;
69565;SDS011;56777;55.930;37.524;2024-03-08T03:10:00;26.13;;;10.63;;
69565;SDS011;56777;55.930;37.524;2024-03-08T03:12:27;19.92;;;9.57;;
69565;SDS011;56777;55.930;37.524;2024-03-08T03:14:52;22.30;;;9.98;;
69565;SDS011;56777;55.930;37.524;2024-03-08T03:17:18;23.48;;;10.82;;
69565;SDS011;56777;55.930;37.524;2024-03-08T03:19:45;20.10;;;9.70;;
69565;SDS011;56777;55.930;37.524;2024-03-08T03:22:11;25.30;;;10.45;;
69565;SDS011;56777;55.930;37.524;2024-03-08T03:24:38;23.00;;;10.07;;
69565;SDS011;56777;55.930;37.524;2024-03-08T03:27:06;21.20;;;9.18;;
69565;SDS011;56777;55.930;37.524;2024-03-08T03:29:39;21.77;;;9.70;;
69565;SDS011;56777;55.930;37.524;2024-03-08T03:32:07;23.45;;;9.70;;
69565;SDS011;56777;55.930;37.524;2024-03-08T03:34:33;22.95;;;10.63;;
69565;SDS011;56777;55.930;37.524;2024-03-08T03:37:02;23.23;;;10.75;;
69565;SDS011;56777;55.930;37.524;2024-03-08T03:39:28;21.17;;;9.95;;
69565;SDS011;56777;55.930;37.524;2024-03-08T03:41:57;26.52;;;11.10;;
69565;SDS011;56777;55.930;37.524;2024-03-08T03:44:24;25.85;;;12.05;;
69565;SDS011;56777;55.930;37.524;2024-03-08T03:46:50;25.85;;;10.40;;
69565;SDS011;56777;55.930;37.524;2024-03-08T03:49:18;24.70;;;11.05;;
69565;SDS011;56777;55.930;37.524;2024-03-08T03:51:44;25.20;;;10.75;;
69565;SDS011;56777;55.930;37.524;2024-03-08T03:54:09;22.30;;;10.93;;
69565;SDS011;56777;55.930;37.524;2024-03-08T03:56:35;25.83;;;10.50;;
69565;SDS011;56777;55.930;37.524;2024-03-08T03:59:05;24.75;;;10.73;;
69565;SDS011;56777;55.930;37.524;2024-03-08T04:01:31;25.02;;;10.30;;
69565;SDS011;56777;55.930;37.524;2024-03-08T04:03:58;21.08;;;9.88;;
69565;SDS011;56777;55.930;37.524;2024-03-08T04:06:23;23.23;;;10.38;;
69565;SDS011;56777;55.930;37.524;2024-03-08T04:08:49;22.67;;;10.68;;
69565;SDS011;56777;55.930;37.524;2024-03-08T04:11:15;22.75;;;10.65;;
69565;SDS011;56777;55.930;37.524;2024-03-08T04:13:42;28.48;;;11.63;;
69565;SDS011;56777;55.930;37.524;2024-03-08T04:16:08;32.10;;;11.80;;
69565;SDS011;56777;55.930;37.524;2024-03-08T04:18:36;28.73;;;11.05;;
69565;SDS011;56777;55.930;37.524;2024-03-08T04:21:03;24.40;;;10.20;;
69565;SDS011;56777;55.930;37.524;2024-03-08T04:23:31;24.63;;;10.82;;
69565;SDS011;56777;55.930;37.524;2024-03-08T04:25:58;25.23;;;10.35;;
69565;SDS011;56777;55.930;37.524;2024-03-08T04:28:24;19.90;;;9.20;;
69565;SDS011;56777;55.930;37.524;2024-03-08T04:30:50;21.33;;;8.95;;
69565;SDS011;56777;55.930;37.524;2024-03-08T04:33:15;30.63;;;10.00;;
69565;SDS011;56777;55.930;37.524;2024-03-08T04:35:43;21.50;;;9.40;;
69565;SDS011;56777;55.930;37.524;2024-03-08T04:38:11;21.73;;;9.10;;
69565;SDS011;56777;55.930;37.524;2024-03-08T04:40:36;23.20;;;9.80;;
69565;SDS011;56777;55.930;37.524;2024-03-08T04:43:02;25.20;;;10.75;;
69565;SDS011;56777;55.930;37.524;2024-03-08T04:45:28;24.30;;;10.40;;
69565;SDS011;56777;55.930;37.524;2024-03-08T04:47:53;23.60;;;11.15;;
69565;SDS011;56777;55.930;37.524;2024-03-08T04:50:19;26.40;;;11.43;;
69565;SDS011;56777;55.930;37.524;2024-03-08T04:52:44;31.67;;;11.93;;
69565;SDS011;56777;55.930;37.524;2024-03-08T04:55:10;26.73;;;11.38;;
69565;SDS011;56777;55.930;37.524;2024-03-08T04:57:35;30.33;;;11.82;;
69565;SDS011;56777;55.930;37.524;2024-03-08T05:00:02;27.80;;;11.05;;
69565;SDS011;56777;55.930;37.524;2024-03-08T05:02:32;26.65;;;11.57;;
69565;SDS011;56777;55.930;37.524;2024-03-08T05:04:58;31.08;;;12.00;;
69565;SDS011;56777;55.930;37.524;2024-03-08T05:07:23;28.80;;;11.45;;
69565;SDS011;56777;55.930;37.524;2024-03-08T05:09:49;27.30;;;11.77;;
69565;SDS011;56777;55.930;37.524;2024-03-08T05:12:17;28.10;;;12.30;;
69565;SDS011;56777;55.930;37.524;2024-03-08T05:14:44;29.85;;;11.48;;
69565;SDS011;56777;55.930;37.524;2024-03-08T05:17:11;26.25;;;12.00;;
69565;SDS011;56777;55.930;37.524;2024-03-08T05:19:37;29.52;;;11.68;;
69565;SDS011;56777;55.930;37.524;2024-03-08T05:22:03;30.77;;;12.43;;
69565;SDS011;56777;55.930;37.524;2024-03-08T05:24:29;30.92;;;12.48;;
69565;SDS011;56777;55.930;37.524;2024-03-08T05:26:55;27.23;;;11.85;;
69565;SDS011;56777;55.930;37.524;2024-03-08T05:29:20;37.05;;;14.05;;
69565;SDS011;56777;55.930;37.524;2024-03-08T05:31:47;30.77;;;12.77;;
69565;SDS011;56777;55.930;37.524;2024-03-08T05:34:14;30.80;;;12.60;;
69565;SDS011;56777;55.930;37.524;2024-03-08T05:36:41;32.83;;;12.55;;
69565;SDS011;56777;55.930;37.524;2024-03-08T05:39:11;29.92;;;12.10;;
69565;SDS011;56777;55.930;37.524;2024-03-08T05:41:40;29.30;;;11.65;;
69565;SDS011;56777;55.930;37.524;2024-03-08T05:44:06;35.88;;;11.52;;
69565;SDS011;56777;55.930;37.524;2024-03-08T05:46:31;33.55;;;14.13;;
69565;SDS011;56777;55.930;37.524;2024-03-08T05:48:57;31.50;;;13.32;;
69565;SDS011;56777;55.930;37.524;2024-03-08T05:51:24;33.83;;;13.38;;
69565;SDS011;56777;55.930;37.524;2024-03-08T05:53:53;32.83;;;12.77;;
69565;SDS011;56777;55.930;37.524;2024-03-08T05:56:21;33.88;;;13.95;;
69565;SDS011;56777;55.930;37.524;2024-03-08T05:58:50;32.15;;;12.45;;
69565;SDS011;56777;55.930;37.524;2024-03-08T06:01:15;37.17;;;13.65;;
69565;SDS011;56777;55.930;37.524;2024-03-08T06:03:41;34.97;;;13.27;;
69565;SDS011;56777;55.930;37.524;2024-03-08T06:06:13;33.05;;;13.80;;
69565;SDS011;56777;55.930;37.524;2024-03-08T06:08:39;33.80;;;14.07;;
69565;SDS011;56777;55.930;37.524;2024-03-08T06:11:05;33.95;;;13.02;;
69565;SDS011;56777;55.930;37.524;2024-03-08T06:13:33;31.85;;;13.95;;
69565;SDS011;56777;55.930;37.524;2024-03-08T06:15:59;37.10;;;14.10;;
69565;SDS011;56777;55.930;37.524;2024-03-08T06:18:26;36.40;;;13.68;;
69565;SDS011;56777;55.930;37.524;2024-03-08T06:20:51;38.03;;;15.10;;
69565;SDS011;56777;55.930;37.524;2024-03-08T06:23:17;36.65;;;17.38;;
69565;SDS011;56777;55.930;37.524;2024-03-08T06:25:46;105.38;;;47.67;;
69565;SDS011;56777;55.930;37.524;2024-03-08T06:28:11;40.00;;;16.98;;
69565;SDS011;56777;55.930;37.524;2024-03-08T06:30:39;32.97;;;13.55;;
69565;SDS011;56777;55.930;37.524;2024-03-08T06:33:05;38.38;;;16.25;;
69565;SDS011;56777;55.930;37.524;2024-03-08T06:35:30;38.13;;;15.40;;
69565;SDS011;56777;55.930;37.524;2024-03-08T06:37:57;36.65;;;14.00;;
69565;SDS011;56777;55.930;37.524;2024-03-08T06:40:23;40.05;;;17.80;;
69565;SDS011;56777;55.930;37.524;2024-03-08T06:42:49;34.72;;;14.55;;
69565;SDS011;56777;55.930;37.524;2024-03-08T06:45:17;34.40;;;13.35;;
69565;SDS011;56777;55.930;37.524;2024-03-08T06:47:46;52.28;;;23.40;;
69565;SDS011;56777;55.930;37.524;2024-03-08T06:50:12;36.67;;;15.23;;
69565;SDS011;56777;55.930;37.524;2024-03-08T06:52:37;40.03;;;17.05;;
69565;SDS011;56777;55.930;37.524;2024-03-08T06:55:04;38.03;;;14.35;;
69565;SDS011;56777;55.930;37.524;2024-03-08T06:57:30;42.58;;;16.92;;
69565;SDS011;56777;55.930;37.524;2024-03-08T06:59:56;48.78;;;15.63;;
69565;SDS011;56777;55.930;37.524;2024-03-08T07:02:25;43.85;;;15.30;;
69565;SDS011;56777;55.930;37.524;2024-03-08T07:04:51;44.83;;;15.02;;
69565;SDS011;56777;55.930;37.524;2024-03-08T07:07:17;47.72;;;15.35;;
69565;SDS011;56777;55.930;37.524;2024-03-08T07:09:45;42.13;;;14.85;;
69565;SDS011;56777;55.930;37.524;2024-03-08T07:12:11;53.17;;;17.35;;
69565;SDS011;56777;55.930;37.524;2024-03-08T07:14:38;51.50;;;15.63;;
69565;SDS011;56777;55.930;37.524;2024-03-08T07:17:10;46.35;;;16.73;;
69565;SDS011;56777;55.930;37.524;2024-03-08T07:19:36;43.50;;;16.02;;
69565;SDS011;56777;55.930;37.524;2024-03-08T07:22:03;52.05;;;18.23;;
69565;SDS011;56777;55.930;37.524;2024-03-08T07:24:33;51.63;;;17.23;;
69565;SDS011;56777;55.930;37.524;2024-03-08T07:27:15;52.17;;;16.75;;
69565;SDS011;56777;55.930;37.524;2024-03-08T07:29:42;46.75;;;16.58;;
69565;SDS011;56777;55.930;37.524;2024-03-08T07:32:07;42.60;;;15.18;;
69565;SDS011;56777;55.930;37.524;2024-03-08T07:34:49;44.35;;;15.70;;
69565;SDS011;56777;55.930;37.524;2024-03-08T07:37:16;48.80;;;17.42;;
69565;SDS011;56777;55.930;37.524;2024-03-08T07:39:42;42.03;;;15.18;;
69565;SDS011;56777;55.930;37.524;2024-03-08T07:42:08;43.15;;;16.08;;
69565;SDS011;56777;55.930;37.524;2024-03-08T07:44:35;45.50;;;16.17;;
69565;SDS011;56777;55.930;37.524;2024-03-08T07:47:00;34.10;;;13.82;;
69565;SDS011;56777;55.930;37.524;2024-03-08T07:49:26;32.80;;;11.02;;
69565;SDS011;56777;55.930;37.524;2024-03-08T07:51:51;27.88;;;11.10;;
69565;SDS011;56777;55.930;37.524;2024-03-08T07:54:17;25.25;;;10.40;;
69565;SDS011;56777;55.930;37.524;2024-03-08T07:56:43;19.95;;;8.68;;
69565;SDS011;56777;55.930;37.524;2024-03-08T07:59:08;22.10;;;8.73;;
69565;SDS011;56777;55.930;37.524;2024-03-08T08:01:34;15.35;;;6.68;;
69565;SDS011;56777;55.930;37.524;2024-03-08T08:03:59;19.92;;;7.15;;
69565;SDS011;56777;55.930;37.524;2024-03-08T08:06:28;22.10;;;9.27;;
69565;SDS011;56777;55.930;37.524;2024-03-08T08:08:57;22.80;;;10.60;;
69565;SDS011;56777;55.930;37.524;2024-03-08T08:11:22;18.13;;;8.55;;
69565;SDS011;56777;55.930;37.524;2024-03-08T08:13:50;19.08;;;7.70;;
69565;SDS011;56777;55.930;37.524;2024-03-08T08:16:16;19.20;;;7.15;;
69565;SDS011;56777;55.930;37.524;2024-03-08T08:18:41;18.77;;;8.40;;
69565;SDS011;56777;55.930;37.524;2024-03-08T08:21:07;19.05;;;7.57;;
69565;SDS011;56777;55.930;37.524;2024-03-08T08:23:32;19.73;;;7.43;;
69565;SDS011;56777;55.930;37.524;2024-03-08T08:25:58;19.08;;;7.90;;
69565;SDS011;56777;55.930;37.524;2024-03-08T08:28:24;18.42;;;7.82;;
69565;SDS011;56777;55.930;37.524;2024-03-08T08:30:49;16.38;;;7.50;;
69565;SDS011;56777;55.930;37.524;2024-03-08T08:33:15;13.70;;;6.53;;
69565;SDS011;56777;55.930;37.524;2024-03-08T08:35:41;18.58;;;7.32;;
69565;SDS011;56777;55.930;37.524;2024-03-08T08:38:07;18.77;;;8.23;;
69565;SDS011;56777;55.930;37.524;2024-03-08T08:40:33;16.35;;;6.50;;
69565;SDS011;56777;55.930;37.524;2024-03-08T08:43:01;16.08;;;6.15;;
69565;SDS011;56777;55.930;37.524;2024-03-08T08:45:29;14.05;;;6.43;;
69565;SDS011;56777;55.930;37.524;2024-03-08T08:47:58;15.85;;;7.43;;
69565;SDS011;56777;55.930;37.524;2024-03-08T08:50:27;16.63;;;7.32;;
69565;SDS011;56777;55.930;37.524;2024-03-08T08:52:53;14.68;;;6.88;;
69565;SDS011;56777;55.930;37.524;2024-03-08T08:55:19;15.27;;;6.38;;
69565;SDS011;56777;55.930;37.524;2024-03-08T08:57:51;16.73;;;7.65;;
69565;SDS011;56777;55.930;37.524;2024-03-08T09:00:18;17.42;;;7.22;;
69565;SDS011;56777;55.930;37.524;2024-03-08T09:02:47;17.63;;;7.72;;
69565;SDS011;56777;55.930;37.524;2024-03-08T09:05:16;17.67;;;7.47;;
69565;SDS011;56777;55.930;37.524;2024-03-08T09:07:42;16.00;;;7.28;;
69565;SDS011;56777;55.930;37.524;2024-03-08T09:10:11;15.63;;;7.03;;
69565;SDS011;56777;55.930;37.524;2024-03-08T09:12:39;13.80;;;6.38;;
69565;SDS011;56777;55.930;37.524;2024-03-08T09:15:07;16.02;;;6.93;;
69565;SDS011;56777;55.930;37.524;2024-03-08T09:17:39;18.10;;;7.35;;
69565;SDS011;56777;55.930;37.524;2024-03-08T09:20:06;22.02;;;8.68;;
69565;SDS011;56777;55.930;37.524;2024-03-08T09:22:33;17.55;;;8.00;;
69565;SDS011;56777;55.930;37.524;2024-03-08T09:25:00;21.58;;;8.07;;
69565;SDS011;56777;55.930;37.524;2024-03-08T09:27:26;14.25;;;7.03;;
69565;SDS011;56777;55.930;37.524;2024-03-08T09:29:52;18.50;;;8.18;;
69565;SDS011;56777;55.930;37.524;2024-03-08T09:32:17;27.98;;;10.77;;
69565;SDS011;56777;55.930;37.524;2024-03-08T09:34:43;21.80;;;9.13;;
69565;SDS011;56777;55.930;37.524;2024-03-08T09:37:09;23.88;;;9.43;;
69565;SDS011;56777;55.930;37.524;2024-03-08T09:39:35;15.43;;;7.05;;
69565;SDS011;56777;55.930;37.524;2024-03-08T09:42:01;18.67;;;7.93;;
69565;SDS011;56777;55.930;37.524;2024-03-08T09:44:27;19.00;;;7.43;;
69565;SDS011;56777;55.930;37.524;2024-03-08T09:46:54;15.63;;;6.78;;
69565;SDS011;56777;55.930;37.524;2024-03-08T09:49:20;16.38;;;7.57;;
69565;SDS011;56777;55.930;37.524;2024-03-08T09:51:46;14.00;;;6.88;;
69565;SDS011;56777;55.930;37.524;2024-03-08T09:54:12;20.60;;;10.80;;
69565;SDS011;56777;55.930;37.524;2024-03-08T09:56:41;26.27;;;11.32;;
69565;SDS011;56777;55.930;37.524;2024-03-08T09:59:10;31.13;;;14.88;;
69565;SDS011;56777;55.930;37.524;2024-03-08T10:01:51;29.48;;;11.77;;
69565;SDS011;56777;55.930;37.524;2024-03-08T10:04:24;12.40;;;5.93;;
69565;SDS011;56777;55.930;37.524;2024-03-08T10:06:53;29.95;;;12.07;;
69565;SDS011;56777;55.930;37.524;2024-03-08T10:09:20;16.83;;;7.47;;
69565;SDS011;56777;55.930;37.524;2024-03-08T10:11:46;13.60;;;7.05;;
69565;SDS011;56777;55.930;37.524;2024-03-08T10:14:13;14.52;;;6.68;;
69565;SDS011;56777;55.930;37.524;2024-03-08T10:16:40;19.58;;;7.43;;
69565;SDS011;56777;55.930;37.524;2024-03-08T10:19:06;16.75;;;6.97;;
69565;SDS011;56777;55.930;37.524;2024-03-08T10:21:33;22.42;;;9.27;;
69565;SDS011;56777;55.930;37.524;2024-03-08T10:23:58;22.08;;;10.50;;
69565;SDS011;56777;55.930;37.524;2024-03-08T10:26:24;23.30;;;10.10;;
69565;SDS011;56777;55.930;37.524;2024-03-08T10:28:53;17.17;;;8.15;;
69565;SDS011;56777;55.930;37.524;2024-03-08T10:31:19;25.17;;;9.25;;
69565;SDS011;56777;55.930;37.524;2024-03-08T10:33:47;19.98;;;10.38;;
69565;SDS011;56777;55.930;37.524;2024-03-08T10:36:14;15.25;;;8.30;;
69565;SDS011;56777;55.930;37.524;2024-03-08T10:38:41;16.98;;;8.30;;
69565;SDS011;56777;55.930;37.524;2024-03-08T10:41:09;16.63;;;7.85;;
69565;SDS011;56777;55.930;37.524;2024-03-08T10:48:55;20.17;;;8.82;;
69565;SDS011;56777;55.930;37.524;2024-03-08T10:51:28;19.52;;;8.82;;
69565;SDS011;56777;55.930;37.524;2024-03-08T10:53:56;19.25;;;8.05;;
69565;SDS011;56777;55.930;37.524;2024-03-08T10:56:24;20.25;;;8.77;;
69565;SDS011;56777;55.930;37.524;2024-03-08T10:58:53;18.42;;;8.73;;
69565;SDS011;56777;55.930;37.524;2024-03-08T11:01:20;23.10;;;8.32;;
69565;SDS011;56777;55.930;37.524;2024-03-08T11:03:47;30.85;;;19.17;;
69565;SDS011;56777;55.930;37.524;2024-03-08T11:07:03;17.55;;;8.15;;
69565;SDS011;56777;55.930;37.524;2024-03-08T11:15:03;23.55;;;9.77;;
69565;SDS011;56777;55.930;37.524;2024-03-08T11:22:40;17.15;;;7.50;;
69565;SDS011;56777;55.930;37.524;2024-03-08T11:28:19;21.27;;;8.73;;
69565;SDS011;56777;55.930;37.524;2024-03-08T11:30:46;18.88;;;7.57;;
69565;SDS011;56777;55.930;37.524;2024-03-08T11:33:34;20.63;;;9.35;;
69565;SDS011;56777;55.930;37.524;2024-03-08T11:38:40;16.85;;;8.15;;
69565;SDS011;56777;55.930;37.524;2024-03-08T11:41:06;16.45;;;7.68;;
69565;SDS011;56777;55.930;37.524;2024-03-08T11:43:33;15.77;;;7.82;;
69565;SDS011;56777;55.930;37.524;2024-03-08T11:46:08;17.88;;;7.90;;
69565;SDS011;56777;55.930;37.524;2024-03-08T11:48:34;16.00;;;8.23;;
69565;SDS011;56777;55.930;37.524;2024-03-08T11:51:03;15.55;;;8.35;;
69565;SDS011;56777;55.930;37.524;2024-03-08T11:53:30;15.23;;;7.88;;
69565;SDS011;56777;55.930;37.524;2024-03-08T11:56:17;17.02;;;7.68;;
69565;SDS011;56777;55.930;37.524;2024-03-08T11:58:52;15.35;;;7.18;;
69565;SDS011;56777;55.930;37.524;2024-03-08T12:01:22;19.08;;;7.93;;
69565;SDS011;56777;55.930;37.524;2024-03-08T12:03:55;19.50;;;8.00;;
69565;SDS011;56777;55.930;37.524;2024-03-08T12:06:27;19.67;;;8.05;;
69565;SDS011;56777;55.930;37.524;2024-03-08T12:09:04;17.38;;;7.85;;
69565;SDS011;56777;55.930;37.524;2024-03-08T12:11:34;13.82;;;6.72;;
69565;SDS011;56777;55.930;37.524;2024-03-08T12:14:01;17.95;;;6.93;;
69565;SDS011;56777;55.930;37.524;2024-03-08T12:16:27;22.50;;;7.57;;
69565;SDS011;56777;55.930;37.524;2024-03-08T12:18:52;22.58;;;7.72;;
69565;SDS011;56777;55.930;37.524;2024-03-08T12:21:19;18.98;;;7.90;;
69565;SDS011;56777;55.930;37.524;2024-03-08T12:24:01;18.02;;;8.68;;
69565;SDS011;56777;55.930;37.524;2024-03-08T12:26:38;17.55;;;8.05;;
69565;SDS011;56777;55.930;37.524;2024-03-08T12:29:15;20.90;;;9.10;;
69565;SDS011;56777;55.930;37.524;2024-03-08T12:31:45;17.33;;;8.27;;
69565;SDS011;56777;55.930;37.524;2024-03-08T12:34:11;16.45;;;7.72;;
69565;SDS011;56777;55.930;37.524;2024-03-08T12:36:38;15.85;;;6.97;;
69565;SDS011;56777;55.930;37.524;2024-03-08T12:39:10;18.20;;;8.48;;
69565;SDS011;56777;55.930;37.524;2024-03-08T12:41:40;19.08;;;7.82;;
69565;SDS011;56777;55.930;37.524;2024-03-08T12:44:08;17.38;;;8.00;;
69565;SDS011;56777;55.930;37.524;2024-03-08T12:46:36;17.77;;;8.10;;
69565;SDS011;56777;55.930;37.524;2024-03-08T12:49:06;13.43;;;6.97;;
69565;SDS011;56777;55.930;37.524;2024-03-08T12:51:33;14.27;;;6.80;;
69565;SDS011;56777;55.930;37.524;2024-03-08T12:53:58;16.15;;;7.53;;
69565;SDS011;56777;55.930;37.524;2024-03-08T12:56:31;13.15;;;6.68;;
69565;SDS011;56777;55.930;37.524;2024-03-08T12:58:58;14.07;;;6.68;;
69565;SDS011;56777;55.930;37.524;2024-03-08T13:01:25;13.05;;;7.13;;
69565;SDS011;56777;55.930;37.524;2024-03-08T13:03:51;14.38;;;6.60;;
69565;SDS011;56777;55.930;37.524;2024-03-08T13:06:18;13.88;;;6.82;;
69565;SDS011;56777;55.930;37.524;2024-03-08T13:08:46;13.55;;;6.57;;
69565;SDS011;56777;55.930;37.524;2024-03-08T13:11:13;14.80;;;7.35;;
69565;SDS011;56777;55.930;37.524;2024-03-08T13:13:42;15.02;;;6.47;;
69565;SDS011;56777;55.930;37.524;2024-03-08T13:16:09;14.68;;;6.65;;
69565;SDS011;56777;55.930;37.524;2024-03-08T13:18:36;17.63;;;7.88;;
69565;SDS011;56777;55.930;37.524;2024-03-08T13:21:02;18.08;;;7.35;;
69565;SDS011;56777;55.930;37.524;2024-03-08T13:23:35;16.38;;;7.60;;
69565;SDS011;56777;55.930;37.524;2024-03-08T13:26:07;15.88;;;7.72;;
69565;SDS011;56777;55.930;37.524;2024-03-08T13:28:37;14.77;;;6.70;;
69565;SDS011;56777;55.930;37.524;2024-03-08T13:31:06;33.20;;;14.55;;
69565;SDS011;56777;55.930;37.524;2024-03-08T13:33:35;14.95;;;7.18;;
69565;SDS011;56777;55.930;37.524;2024-03-08T13:36:07;18.13;;;7.38;;
69565;SDS011;56777;55.930;37.524;2024-03-08T13:38:46;26.38;;;12.40;;
69565;SDS011;56777;55.930;37.524;2024-03-08T13:41:13;26.52;;;11.57;;
69565;SDS011;56777;55.930;37.524;2024-03-08T13:43:46;13.27;;;6.85;;
69565;SDS011;56777;55.930;37.524;2024-03-08T13:46:15;18.42;;;6.68;;
69565;SDS011;56777;55.930;37.524;2024-03-08T13:48:40;17.38;;;7.65;;
69565;SDS011;56777;55.930;37.524;2024-03-08T13:51:06;16.00;;;7.00;;
69565;SDS011;56777;55.930;37.524;2024-03-08T13:53:33;15.63;;;7.30;;
69565;SDS011;56777;55.930;37.524;2024-03-08T13:56:00;12.63;;;6.28;;
69565;SDS011;56777;55.930;37.524;2024-03-08T13:58:29;14.85;;;6.15;;
69565;SDS011;56777;55.930;37.524;2024-03-08T14:00:54;14.77;;;7.15;;
69565;SDS011;56777;55.930;37.524;2024-03-08T14:03:20;18.60;;;7.45;;
69565;SDS011;56777;55.930;37.524;2024-03-08T14:05:46;16.08;;;7.70;;
69565;SDS011;56777;55.930;37.524;2024-03-08T14:08:12;16.23;;;7.13;;
69565;SDS011;56777;55.930;37.524;2024-03-08T14:10:38;17.15;;;7.15;;
69565;SDS011;56777;55.930;37.524;2024-03-08T14:13:04;14.70;;;6.53;;
69565;SDS011;56777;55.930;37.524;2024-03-08T14:15:33;12.95;;;6.65;;
69565;SDS011;56777;55.930;37.524;2024-03-08T14:18:00;13.98;;;7.05;;
69565;SDS011;56777;55.930;37.524;2024-03-08T14:20:26;12.65;;;5.80;;
69565;SDS011;56777;55.930;37.524;2024-03-08T14:22:55;12.80;;;6.07;;
69565;SDS011;56777;55.930;37.524;2024-03-08T14:25:21;14.45;;;7.35;;
69565;SDS011;56777;55.930;37.524;2024-03-08T14:27:49;13.02;;;6.60;;
69565;SDS011;56777;55.930;37.524;2024-03-08T14:30:27;12.68;;;6.30;;
69565;SDS011;56777;55.930;37.524;2024-03-08T14:33:04;14.10;;;7.03;;
69565;SDS011;56777;55.930;37.524;2024-03-08T14:35:37;38.97;;;14.52;;
69565;SDS011;56777;55.930;37.524;2024-03-08T14:38:05;19.92;;;9.30;;
69565;SDS011;56777;55.930;37.524;2024-03-08T14:40:35;14.88;;;7.70;;
69565;SDS011;56777;55.930;37.524;2024-03-08T14:43:04;23.00;;;9.73;;